createdAt,value
2023-11-30T00:00:14.996Z,-1.07
2023-11-30T00:02:38.083Z,-1.11
2023-11-30T00:05:00.827Z,-1.15
2023-11-30T00:07:23.423Z,-1.00
2023-11-30T00:09:46.182Z,-1.00
2023-11-30T00:12:09.993Z,-1.01
2023-11-30T00:14:35.535Z,-0.94
2023-11-30T00:16:58.574Z,-1.03
2023-11-30T00:19:21.327Z,-1.03
2023-11-30T00:21:44.000Z,-1.05
2023-11-30T00:24:13.212Z,-1.01
2023-11-30T00:26:36.241Z,-0.92
2023-11-30T00:28:59.137Z,-0.94
2023-11-30T00:31:21.907Z,-0.90
2023-11-30T00:33:44.641Z,-1.00
2023-11-30T00:36:15.218Z,-1.00
2023-11-30T00:38:38.345Z,-0.93
2023-11-30T00:41:00.986Z,-0.90
2023-11-30T00:43:23.962Z,-0.99
2023-11-30T00:45:55.252Z,-1.04
2023-11-30T00:48:23.688Z,-0.96
2023-11-30T00:50:46.528Z,-0.93
2023-11-30T00:53:09.252Z,-0.96
2023-11-30T00:55:32.012Z,-0.96
2023-11-30T00:57:54.841Z,-1.05
2023-11-30T01:00:18.868Z,-1.04
2023-11-30T01:02:42.054Z,-1.00
2023-11-30T01:05:05.233Z,-1.01
2023-11-30T01:07:28.214Z,-1.01
2023-11-30T01:09:50.829Z,-0.90
2023-11-30T01:12:15.207Z,-0.99
2023-11-30T01:14:41.523Z,-1.03
2023-11-30T01:17:04.390Z,-1.04
2023-11-30T01:19:27.058Z,-0.96
2023-11-30T01:21:50.079Z,-0.89
2023-11-30T01:24:13.841Z,-0.97
2023-11-30T01:26:36.951Z,-1.04
2023-11-30T01:28:59.685Z,-1.11
2023-11-30T01:31:22.327Z,-1.04
2023-11-30T01:33:46.392Z,-1.13
2023-11-30T01:36:14.912Z,-1.10
2023-11-30T01:38:38.033Z,-1.15
2023-11-30T01:41:00.770Z,-1.15
2023-11-30T01:43:23.945Z,-1.10
2023-11-30T01:45:47.551Z,-1.20
2023-11-30T01:48:12.892Z,-1.14
2023-11-30T01:50:36.145Z,-1.13
2023-11-30T01:53:00.025Z,-1.20
2023-11-30T01:55:22.890Z,-1.14
2023-11-30T01:57:45.790Z,-1.17
2023-11-30T02:00:18.340Z,-1.13
2023-11-30T02:02:44.783Z,-1.14
2023-11-30T02:05:07.938Z,-1.20
2023-11-30T02:07:30.580Z,-1.37
2023-11-30T02:09:53.433Z,-1.34
2023-11-30T02:12:16.645Z,-1.31
2023-11-30T02:14:39.618Z,-1.35
2023-11-30T02:17:04.397Z,-1.48
2023-11-30T02:19:27.315Z,-1.44
2023-11-30T02:21:51.562Z,-1.40
2023-11-30T02:24:15.939Z,-1.34
2023-11-30T02:26:39.085Z,-1.27
2023-11-30T02:29:01.727Z,-1.30
2023-11-30T02:31:24.443Z,-1.15
2023-11-30T02:33:47.303Z,-1.15
2023-11-30T02:36:13.321Z,-1.13
2023-11-30T02:38:36.694Z,-1.10
2023-11-30T02:40:59.490Z,-1.00
2023-11-30T02:43:23.474Z,-0.89
2023-11-30T02:45:46.421Z,-0.79
2023-11-30T02:48:16.070Z,-0.65
2023-11-30T02:50:39.181Z,-0.65
2023-11-30T02:53:02.080Z,-0.69
2023-11-30T02:55:24.841Z,-0.72
2023-11-30T02:57:47.699Z,-0.72
2023-11-30T03:00:15.888Z,-0.65
2023-11-30T03:02:39.181Z,-0.56
2023-11-30T03:05:01.906Z,-0.58
2023-11-30T03:07:24.983Z,-0.59
2023-11-30T03:09:47.743Z,-0.65
2023-11-30T03:12:11.989Z,-0.62
2023-11-30T03:14:35.178Z,-0.61
2023-11-30T03:16:58.358Z,-0.62
2023-11-30T03:19:21.111Z,-0.51
2023-11-30T03:21:43.792Z,-0.54
2023-11-30T03:24:13.342Z,-0.52
2023-11-30T03:26:36.457Z,-0.41
2023-11-30T03:28:59.221Z,-0.32
2023-11-30T03:31:22.223Z,-0.25
2023-11-30T03:33:44.972Z,-0.24
2023-11-30T03:36:29.637Z,-0.32
2023-11-30T03:38:55.273Z,-0.35
2023-11-30T03:41:18.058Z,-0.38
2023-11-30T03:43:40.705Z,-0.44
2023-11-30T03:46:03.427Z,-0.37
2023-11-30T03:48:27.077Z,-0.39
2023-11-30T03:50:49.823Z,-0.35
2023-11-30T03:53:12.669Z,-0.31
2023-11-30T03:55:35.319Z,-0.22
2023-11-30T03:57:58.009Z,-0.10
2023-11-30T04:00:21.669Z,-0.08
2023-11-30T04:02:44.751Z,-0.06
2023-11-30T04:05:08.760Z,-0.04
2023-11-30T04:07:31.522Z,-0.03
2023-11-30T04:09:54.195Z,-0.06
2023-11-30T04:12:18.267Z,0.04
2023-11-30T04:14:41.292Z,0.06
2023-11-30T04:17:04.898Z,0.03
2023-11-30T04:19:27.812Z,0.06
2023-11-30T04:21:50.548Z,0.01
2023-11-30T04:24:17.422Z,0.06
2023-11-30T04:26:40.693Z,0.09
2023-11-30T04:29:03.403Z,0.10
2023-11-30T04:31:26.582Z,0.20
2023-11-30T04:33:49.365Z,0.20
2023-11-30T04:36:15.144Z,0.22
2023-11-30T04:38:38.093Z,0.24
2023-11-30T04:41:00.811Z,0.21
2023-11-30T04:43:26.731Z,0.27
2023-11-30T04:45:49.822Z,0.31
2023-11-30T04:48:15.009Z,0.41
2023-11-30T04:50:38.022Z,0.44
2023-11-30T04:53:00.697Z,0.42
2023-11-30T04:55:23.690Z,0.37
2023-11-30T04:57:46.889Z,0.40
2023-11-30T05:00:16.999Z,0.36
2023-11-30T05:02:53.791Z,0.38
2023-11-30T05:05:16.653Z,0.31
2023-11-30T05:07:39.231Z,0.38
2023-11-30T05:10:02.016Z,0.38
2023-11-30T05:12:24.990Z,0.38
2023-11-30T05:14:47.614Z,0.47
2023-11-30T05:17:10.295Z,0.51
2023-11-30T05:19:32.965Z,0.57
2023-11-30T05:21:55.779Z,0.59
2023-11-30T05:24:19.139Z,0.59
2023-11-30T05:26:42.398Z,0.65
2023-11-30T05:29:05.105Z,0.76
2023-11-30T05:31:27.958Z,0.85
2023-11-30T05:33:51.439Z,0.85
2023-11-30T05:36:15.158Z,0.97
2023-11-30T05:38:38.424Z,0.82
2023-11-30T05:41:01.280Z,0.70
2023-11-30T05:43:24.034Z,0.64
2023-11-30T05:45:46.743Z,0.75
2023-11-30T05:48:11.704Z,0.79
2023-11-30T05:50:36.162Z,0.72
2023-11-30T05:52:59.015Z,0.72
2023-11-30T05:55:22.158Z,0.87
2023-11-30T05:57:44.961Z,0.93
2023-11-30T06:00:28.255Z,0.96
2023-11-30T06:02:51.880Z,0.97
2023-11-30T06:05:14.850Z,0.96
2023-11-30T06:07:37.811Z,1.00
2023-11-30T06:10:00.917Z,1.06
2023-11-30T06:12:23.882Z,1.12
2023-11-30T06:14:46.732Z,1.04
2023-11-30T06:17:09.497Z,1.08
2023-11-30T06:19:32.555Z,1.16
2023-11-30T06:21:55.372Z,1.13
2023-11-30T06:24:18.557Z,1.01
2023-11-30T06:26:43.078Z,1.12
2023-11-30T06:29:05.798Z,1.13
2023-11-30T06:31:28.582Z,1.19
2023-11-30T06:33:51.567Z,1.33
2023-11-30T06:36:15.179Z,1.26
2023-11-30T06:38:38.222Z,1.26
2023-11-30T06:41:01.546Z,1.31
2023-11-30T06:43:24.307Z,1.28
2023-11-30T06:45:47.169Z,1.26
2023-11-30T06:48:11.673Z,1.31
2023-11-30T06:50:35.123Z,1.33
2023-11-30T06:52:57.904Z,1.30
2023-11-30T06:55:20.885Z,1.34
2023-11-30T06:57:44.344Z,1.33
2023-11-30T07:00:13.798Z,1.37
2023-11-30T07:02:41.157Z,1.44
2023-11-30T07:05:06.804Z,1.34
2023-11-30T07:07:34.240Z,1.41
2023-11-30T07:10:00.960Z,1.41
2023-11-30T07:12:24.744Z,1.48
2023-11-30T07:14:51.119Z,1.54
2023-11-30T07:17:14.870Z,1.52
2023-11-30T07:19:40.645Z,1.55
2023-11-30T07:22:03.500Z,1.58
2023-11-30T07:24:26.173Z,1.48
2023-11-30T07:26:51.790Z,1.48
2023-11-30T07:29:15.595Z,1.62
2023-11-30T07:31:38.449Z,1.58
2023-11-30T07:34:01.261Z,1.51
2023-11-30T07:36:24.254Z,1.65
2023-11-30T07:38:47.108Z,1.52
2023-11-30T07:41:10.499Z,1.62
2023-11-30T07:43:33.513Z,1.51
2023-11-30T07:45:56.674Z,1.52
2023-11-30T07:48:24.952Z,1.38
2023-11-30T07:50:47.651Z,1.24
2023-11-30T07:53:10.959Z,1.26
2023-11-30T07:55:34.508Z,1.17
2023-11-30T07:57:57.352Z,1.13
2023-11-30T08:00:21.121Z,1.13
2023-11-30T08:02:44.571Z,1.00
2023-11-30T08:05:07.623Z,1.03
2023-11-30T08:07:31.888Z,1.06
2023-11-30T08:09:54.772Z,1.08
2023-11-30T08:12:18.561Z,1.00
2023-11-30T08:14:41.763Z,0.95
2023-11-30T08:17:06.350Z,0.89
2023-11-30T08:19:29.154Z,0.92
2023-11-30T08:21:53.585Z,0.85
2023-11-30T08:24:16.796Z,0.82
2023-11-30T08:26:39.908Z,0.90
2023-11-30T08:29:02.715Z,0.90
2023-11-30T08:31:25.725Z,0.90
2023-11-30T08:33:48.722Z,0.92
2023-11-30T08:36:13.193Z,0.96
2023-11-30T08:38:39.544Z,0.92
2023-11-30T08:41:02.593Z,0.96
2023-11-30T08:43:25.519Z,0.93
2023-11-30T08:45:48.478Z,1.01
2023-11-30T08:48:16.211Z,1.03
2023-11-30T08:50:42.225Z,1.14
2023-11-30T08:53:05.352Z,1.22
2023-11-30T08:55:28.070Z,1.22
2023-11-30T08:57:52.155Z,1.26
2023-11-30T09:00:20.204Z,1.45
2023-11-30T09:02:44.099Z,1.45
2023-11-30T09:05:09.063Z,1.45
2023-11-30T09:07:32.225Z,1.45
2023-11-30T09:09:55.140Z,1.38
2023-11-30T09:12:18.301Z,1.33
2023-11-30T09:14:41.434Z,1.41
2023-11-30T09:17:06.365Z,1.28
2023-11-30T09:19:29.979Z,1.17
2023-11-30T09:21:53.513Z,1.17
2023-11-30T09:24:19.155Z,1.26
2023-11-30T09:26:45.354Z,1.23
2023-11-30T09:29:09.099Z,1.44
2023-11-30T09:31:33.388Z,1.62
2023-11-30T09:33:56.657Z,1.66
2023-11-30T09:36:20.385Z,1.89
2023-11-30T09:38:43.519Z,1.96
2023-11-30T09:41:11.609Z,1.81
2023-11-30T09:43:35.175Z,1.83
2023-11-30T09:45:57.938Z,1.85
2023-11-30T09:48:24.604Z,1.76
2023-11-30T09:50:49.246Z,1.69
2023-11-30T09:53:13.574Z,1.76
2023-11-30T09:55:36.598Z,1.71
2023-11-30T09:58:00.268Z,1.72
2023-11-30T10:00:23.501Z,1.69
2023-11-30T10:02:58.727Z,1.76
2023-11-30T10:05:43.186Z,1.75
2023-11-30T10:08:06.382Z,1.72
2023-11-30T10:10:29.094Z,1.89
2023-11-30T10:12:54.421Z,1.92
2023-11-30T10:15:17.623Z,1.79
2023-11-30T10:17:40.471Z,1.78
2023-11-30T10:20:07.468Z,1.68
2023-11-30T10:22:32.588Z,1.62
2023-11-30T10:24:56.198Z,1.50
2023-11-30T10:27:24.291Z,1.58
2023-11-30T10:29:49.397Z,1.61
2023-11-30T10:32:14.610Z,1.72
2023-11-30T10:34:47.607Z,1.68
2023-11-30T10:37:10.961Z,1.59
2023-11-30T10:39:37.847Z,1.69
2023-11-30T10:42:13.188Z,1.69
2023-11-30T10:44:39.492Z,1.73
2023-11-30T10:47:02.640Z,1.78
2023-11-30T10:49:27.315Z,1.72
2023-11-30T10:51:52.227Z,1.76
2023-11-30T10:54:26.726Z,1.65
2023-11-30T10:56:49.802Z,1.68
2023-11-30T10:59:14.177Z,1.66
2023-11-30T11:01:37.637Z,1.69
2023-11-30T11:04:00.796Z,1.66
2023-11-30T11:06:28.138Z,1.75
2023-11-30T11:09:01.269Z,1.85
2023-11-30T11:11:30.194Z,1.89
2023-11-30T11:13:53.048Z,1.82
2023-11-30T11:16:15.919Z,1.86
2023-11-30T11:18:43.540Z,1.78
2023-11-30T11:21:07.129Z,1.79
2023-11-30T11:23:40.804Z,1.73
2023-11-30T11:26:06.687Z,1.64
2023-11-30T11:28:29.920Z,1.69
2023-11-30T11:30:52.943Z,1.73
2023-11-30T11:33:22.506Z,1.72
2023-11-30T11:35:46.712Z,1.71
2023-11-30T11:38:09.636Z,1.76
2023-11-30T11:40:32.478Z,1.79
2023-11-30T11:42:55.853Z,1.85
2023-11-30T11:45:19.426Z,1.86
2023-11-30T11:47:42.411Z,1.79
2023-11-30T11:50:06.764Z,1.86
2023-11-30T11:52:32.118Z,1.95
2023-11-30T11:55:09.898Z,1.85
2023-11-30T11:57:37.524Z,1.86
2023-11-30T12:00:03.470Z,1.86
2023-11-30T12:02:29.829Z,1.93
2023-11-30T12:04:53.752Z,1.87
2023-11-30T12:07:19.167Z,1.86
2023-11-30T12:09:54.747Z,1.89
2023-11-30T12:12:17.886Z,2.02
2023-11-30T12:14:40.934Z,2.03
2023-11-30T12:17:03.875Z,1.85
2023-11-30T12:19:26.563Z,1.82
2023-11-30T12:21:49.627Z,1.83
2023-11-30T12:24:33.094Z,1.81
2023-11-30T12:26:57.461Z,1.76
2023-11-30T12:29:20.548Z,1.79
2023-11-30T12:31:43.380Z,1.73
2023-11-30T12:34:07.715Z,1.89
2023-11-30T12:36:31.115Z,1.96
2023-11-30T12:38:53.944Z,1.81
2023-11-30T12:41:16.868Z,1.79
2023-11-30T12:43:39.847Z,1.75
2023-11-30T12:46:02.804Z,1.62
2023-11-30T12:48:26.366Z,1.59
2023-11-30T12:50:50.006Z,1.65
2023-11-30T12:53:15.649Z,1.66
2023-11-30T12:55:38.650Z,1.65
2023-11-30T12:58:01.473Z,1.58
2023-11-30T13:00:24.909Z,1.66
2023-11-30T13:02:49.038Z,1.66
2023-11-30T13:05:15.531Z,1.58
2023-11-30T13:07:40.913Z,1.56
2023-11-30T13:10:05.037Z,1.50
2023-11-30T13:12:28.083Z,1.51
2023-11-30T13:14:51.002Z,1.50
2023-11-30T13:17:14.598Z,1.47
2023-11-30T13:19:37.454Z,1.56
2023-11-30T13:22:01.008Z,1.48
2023-11-30T13:24:24.636Z,1.43
2023-11-30T13:26:49.245Z,1.40
2023-11-30T13:29:12.248Z,1.40
2023-11-30T13:31:35.131Z,1.44
2023-11-30T13:33:57.993Z,1.44
2023-11-30T13:36:21.518Z,1.45
2023-11-30T13:38:45.387Z,1.44
2023-11-30T13:41:08.411Z,1.40
2023-11-30T13:43:31.293Z,1.35
2023-11-30T13:45:54.376Z,1.48
2023-11-30T13:48:19.190Z,1.66
2023-11-30T13:50:52.513Z,1.61
2023-11-30T13:53:19.177Z,1.62
2023-11-30T13:55:42.024Z,1.56
2023-11-30T13:58:04.899Z,1.55
2023-11-30T14:00:28.123Z,1.56
2023-11-30T14:02:51.084Z,1.58
2023-11-30T14:05:13.892Z,1.51
2023-11-30T14:07:36.893Z,1.48
2023-11-30T14:10:02.911Z,1.61
2023-11-30T14:12:28.655Z,1.45
2023-11-30T14:14:51.420Z,1.48
2023-11-30T14:17:14.769Z,1.48
2023-11-30T14:19:37.571Z,1.41
2023-11-30T14:22:01.049Z,1.33
2023-11-30T14:24:24.154Z,1.27
2023-11-30T14:26:47.544Z,1.28
2023-11-30T14:29:10.422Z,1.30
2023-11-30T14:31:33.635Z,1.33
2023-11-30T14:33:56.740Z,1.35
2023-11-30T14:36:20.322Z,1.34
2023-11-30T14:38:44.857Z,1.33
2023-11-30T14:41:08.210Z,1.28
2023-11-30T14:43:31.102Z,1.30
2023-11-30T14:45:53.960Z,1.27
2023-11-30T14:48:18.479Z,1.33
2023-11-30T14:50:42.689Z,1.33
2023-11-30T14:53:06.092Z,1.26
2023-11-30T14:55:28.762Z,1.27
2023-11-30T14:57:51.509Z,1.30
2023-11-30T15:00:22.173Z,1.31
2023-11-30T15:02:45.439Z,1.30
2023-11-30T15:05:10.882Z,1.35
2023-11-30T15:07:33.975Z,1.35
2023-11-30T15:09:57.131Z,1.30
2023-11-30T15:12:20.664Z,1.27
2023-11-30T15:14:43.550Z,1.20
2023-11-30T15:17:06.554Z,1.20
2023-11-30T15:19:29.413Z,1.24
2023-11-30T15:21:52.252Z,1.28
2023-11-30T15:24:18.798Z,1.35
2023-11-30T15:26:41.939Z,1.28
2023-11-30T15:29:05.221Z,1.37
2023-11-30T15:31:28.262Z,1.33
2023-11-30T15:33:51.502Z,1.22
2023-11-30T15:36:19.743Z,1.22
2023-11-30T15:38:43.056Z,1.23
2023-11-30T15:41:05.926Z,1.22
2023-11-30T15:43:28.588Z,1.26
2023-11-30T15:45:51.440Z,1.22
2023-11-30T15:48:18.588Z,1.20
2023-11-30T15:50:41.586Z,1.23
2023-11-30T15:53:04.341Z,1.19
2023-11-30T15:55:27.493Z,1.17
2023-11-30T15:57:50.269Z,1.26
2023-11-30T16:00:14.781Z,1.28
2023-11-30T16:02:42.779Z,1.19
2023-11-30T16:05:06.271Z,1.22
2023-11-30T16:07:29.036Z,1.22
2023-11-30T16:09:51.826Z,1.23
2023-11-30T16:12:18.490Z,1.20
2023-11-30T16:14:41.707Z,1.17
2023-11-30T16:17:04.547Z,1.26
2023-11-30T16:19:27.197Z,1.23
2023-11-30T16:21:53.506Z,1.30
2023-11-30T16:24:18.115Z,1.30
2023-11-30T16:26:41.270Z,1.28
2023-11-30T16:29:04.120Z,1.23
2023-11-30T16:31:26.875Z,1.27
2023-11-30T16:33:52.556Z,1.23
2023-11-30T16:36:19.522Z,1.27
2023-11-30T16:38:42.798Z,1.27
2023-11-30T16:41:05.936Z,1.28
2023-11-30T16:43:28.978Z,1.28
2023-11-30T16:45:51.770Z,1.24
2023-11-30T16:48:16.899Z,1.23
2023-11-30T16:50:42.924Z,1.23
2023-11-30T16:53:05.864Z,1.26
2023-11-30T16:55:28.555Z,1.27
2023-11-30T16:57:51.263Z,1.33
2023-11-30T17:00:17.153Z,1.33
2023-11-30T17:02:40.476Z,1.40
2023-11-30T17:05:03.348Z,1.44
2023-11-30T17:07:26.337Z,1.34
2023-11-30T17:09:49.837Z,1.31
2023-11-30T17:12:14.734Z,1.33
2023-11-30T17:14:39.503Z,1.41
2023-11-30T17:17:02.214Z,1.41
2023-11-30T17:19:25.038Z,1.41
2023-11-30T17:21:50.233Z,1.37
2023-11-30T17:24:15.093Z,1.41
2023-11-30T17:26:39.447Z,1.45
2023-11-30T17:29:02.186Z,1.43
2023-11-30T17:31:24.859Z,1.37
2023-11-30T17:33:48.234Z,1.33
2023-11-30T17:36:17.247Z,1.34
2023-11-30T17:38:40.813Z,1.28
2023-11-30T17:41:03.825Z,1.31
2023-11-30T17:43:26.621Z,1.31
2023-11-30T17:45:49.301Z,1.30
2023-11-30T17:48:17.691Z,1.31
2023-11-30T17:50:41.056Z,1.34
2023-11-30T17:53:04.260Z,1.31
2023-11-30T17:55:27.253Z,1.33
2023-11-30T17:57:50.057Z,1.34
2023-11-30T18:00:15.911Z,1.33
2023-11-30T18:02:43.605Z,1.33
2023-11-30T18:05:06.577Z,1.31
2023-11-30T18:07:29.171Z,1.31
2023-11-30T18:09:52.031Z,1.26
2023-11-30T18:12:17.369Z,1.24
2023-11-30T18:14:42.632Z,1.22
2023-11-30T18:17:06.072Z,1.24
2023-11-30T18:19:29.750Z,1.23
2023-11-30T18:21:52.492Z,1.26
2023-11-30T18:24:16.919Z,1.23
2023-11-30T18:26:40.193Z,1.27
2023-11-30T18:29:03.231Z,1.27
2023-11-30T18:31:25.958Z,1.34
2023-11-30T18:33:49.699Z,1.34
2023-11-30T18:36:15.051Z,1.35
2023-11-30T18:38:44.156Z,1.35
2023-11-30T18:41:13.722Z,1.40
2023-11-30T18:43:36.417Z,1.41
2023-11-30T18:45:59.260Z,1.44
2023-11-30T18:48:23.264Z,1.38
2023-11-30T18:50:46.288Z,1.40
2023-11-30T18:53:09.395Z,1.38
2023-11-30T18:55:32.073Z,1.41
2023-11-30T18:57:55.498Z,1.43
2023-11-30T19:00:19.808Z,1.38
2023-11-30T19:02:42.840Z,1.37
2023-11-30T19:05:08.676Z,1.37
2023-11-30T19:07:33.796Z,1.40
2023-11-30T19:09:57.339Z,1.34
2023-11-30T19:12:20.649Z,1.38
2023-11-30T19:14:43.804Z,1.40
2023-11-30T19:17:06.709Z,1.44
2023-11-30T19:19:29.667Z,1.48
2023-11-30T19:21:52.458Z,1.45
2023-11-30T19:24:18.243Z,1.45
2023-11-30T19:26:41.268Z,1.47
2023-11-30T19:29:04.987Z,1.50
2023-11-30T19:31:27.714Z,1.56
2023-11-30T19:33:50.638Z,1.58
2023-11-30T19:36:18.343Z,1.62
2023-11-30T19:38:41.445Z,1.62
2023-11-30T19:41:04.285Z,1.73
2023-11-30T19:43:27.480Z,1.72
2023-11-30T19:45:50.529Z,1.76
2023-11-30T19:48:14.724Z,1.75
2023-11-30T19:50:38.378Z,1.82
2023-11-30T19:53:01.229Z,1.76
2023-11-30T19:55:24.310Z,1.83
2023-11-30T19:57:47.050Z,1.82
2023-11-30T20:00:10.522Z,1.89
2023-11-30T20:02:37.389Z,2.07
2023-11-30T20:05:00.349Z,1.98
2023-11-30T20:07:23.799Z,1.92
2023-11-30T20:09:46.529Z,1.92
2023-11-30T20:12:13.630Z,2.02
2023-11-30T20:14:42.140Z,2.03
2023-11-30T20:17:05.057Z,2.23
2023-11-30T20:19:27.841Z,2.27
2023-11-30T20:21:50.587Z,2.23
2023-11-30T20:24:13.687Z,2.14
2023-11-30T20:26:40.447Z,2.21
2023-11-30T20:29:03.112Z,2.36
2023-11-30T20:31:25.961Z,2.45
2023-11-30T20:33:51.350Z,2.38
2023-11-30T20:36:18.411Z,2.30
2023-11-30T20:38:41.450Z,2.33
2023-11-30T20:41:04.341Z,2.30
2023-11-30T20:43:27.133Z,2.20
2023-11-30T20:45:49.966Z,2.20
2023-11-30T20:48:14.586Z,2.31
2023-11-30T20:50:39.938Z,2.27
2023-11-30T20:53:02.536Z,2.17
2023-11-30T20:55:25.260Z,2.09
2023-11-30T20:57:48.391Z,1.96
2023-11-30T21:00:20.625Z,1.91
2023-11-30T21:02:43.653Z,1.86
2023-11-30T21:05:06.956Z,1.89
2023-11-30T21:07:29.705Z,1.92
2023-11-30T21:09:52.433Z,2.03
2023-11-30T21:12:16.892Z,2.02
2023-11-30T21:14:39.908Z,2.00
2023-11-30T21:17:02.763Z,2.02
2023-11-30T21:19:26.585Z,2.12
2023-11-30T21:21:49.485Z,2.23
2023-11-30T21:24:15.431Z,2.37
2023-11-30T21:26:39.508Z,2.37
2023-11-30T21:29:02.149Z,2.20
2023-11-30T21:31:24.965Z,2.09
2023-11-30T21:33:47.688Z,2.10
2023-11-30T21:36:17.318Z,1.99
2023-11-30T21:38:40.343Z,1.98
2023-11-30T21:41:03.084Z,2.02
2023-11-30T21:43:26.726Z,2.02
2023-11-30T21:45:49.653Z,2.06
2023-11-30T21:48:19.473Z,2.06
2023-11-30T21:50:43.962Z,2.14
2023-11-30T21:53:06.681Z,2.13
2023-11-30T21:55:29.427Z,2.03
2023-11-30T21:57:52.068Z,2.03
2023-11-30T22:00:18.974Z,2.05
2023-11-30T22:02:47.422Z,2.09
2023-11-30T22:05:11.234Z,2.07
2023-11-30T22:07:35.143Z,2.05
2023-11-30T22:09:58.696Z,2.05
2023-11-30T22:12:21.858Z,1.99
2023-11-30T22:14:44.902Z,1.96
2023-11-30T22:17:08.091Z,1.89
2023-11-30T22:19:31.226Z,1.85
2023-11-30T22:21:54.092Z,1.87
2023-11-30T22:24:18.674Z,1.96
2023-11-30T22:26:42.374Z,1.96
2023-11-30T22:29:05.208Z,2.03
2023-11-30T22:31:28.930Z,2.06
2023-11-30T22:33:51.678Z,2.06
2023-11-30T22:36:18.976Z,2.06
2023-11-30T22:38:46.180Z,1.99
2023-11-30T22:41:11.989Z,2.03
2023-11-30T22:43:34.715Z,2.12
2023-11-30T22:45:57.514Z,2.23
2023-11-30T22:48:20.744Z,2.33
2023-11-30T22:50:43.851Z,2.07
2023-11-30T22:53:06.676Z,2.09
2023-11-30T22:55:29.539Z,2.07
2023-11-30T22:57:52.453Z,2.23
2023-11-30T23:00:21.965Z,2.31
2023-11-30T23:02:45.473Z,2.30
2023-11-30T23:05:10.571Z,2.19
2023-11-30T23:07:33.431Z,2.17
2023-11-30T23:09:56.175Z,2.19
2023-11-30T23:12:19.449Z,2.24
2023-11-30T23:14:42.645Z,2.30
2023-11-30T23:17:05.638Z,2.23
2023-11-30T23:19:30.902Z,2.34
2023-11-30T23:21:54.465Z,2.48
2023-11-30T23:24:25.861Z,2.40
2023-11-30T23:26:52.024Z,2.44
2023-11-30T23:29:14.779Z,2.34
2023-11-30T23:31:37.678Z,2.42
2023-11-30T23:34:00.543Z,2.42
2023-11-30T23:36:24.122Z,2.57
2023-11-30T23:38:47.129Z,2.58
2023-11-30T23:41:10.118Z,2.50
2023-11-30T23:43:32.989Z,2.44
2023-11-30T23:45:55.816Z,2.38
2023-11-30T23:48:19.108Z,2.34
2023-11-30T23:50:42.179Z,2.31
2023-11-30T23:53:04.832Z,2.31
2023-11-30T23:55:27.634Z,2.36
2023-11-30T23:57:50.385Z,2.21
